^^
B2 Weather Station Historical Data
Daily Summary for December 4, 2017 Units:  Metric    English   Both
« Previous Day
Next Day »
Daily Weekly Monthly Yearly Custom
  High: Low: Average:
Temperature: 17.6 °C 8.3 °C 13.8 °C
Dew Point: 13.4 °C 3.1 °C 7.9 °C
Humidity: 88 % 59 % 68 %
Wind Speed: 53.8 km/h 7.4 km/h 28.2 km/h
Wind Gust: 53.8 km/h - -
Wind:- - South
Pressure: 1016.5 hPa 1000.9 hPa -
Precipitation: 0.76 mm    
Historical Graphs
 
 
Tabular Data for December 4, 2017
Time Temperature Dew Point Pressure Wind Wind Speed Wind Gust Humidity Rainfall Rate (Hourly) solar Conditions
00:01 9.1 °C 3.1 °C 1016.5 hPa SSE 20.4 km/h 20.4 km/h 66 % 0 mm 0.0 W/m2 BKN
00:06 9.2 °C 3.3 °C 1016.5 hPa SSE 16.7 km/h 16.7 km/h 67 % 0 mm 0.0 W/m2 BKN
00:11 9.2 °C 3.2 °C 1016.5 hPa SSE 18.5 km/h 18.5 km/h 66 % 0 mm 0.0 W/m2 BKN
00:16 9.3 °C 3.2 °C 1016.5 hPa SSE 18.5 km/h 18.5 km/h 66 % 0 mm 0.0 W/m2 BKN
00:21 9.3 °C 3.3 °C 1016.5 hPa SSE 18.5 km/h 18.5 km/h 66 % 0 mm 0.0 W/m2 BKN
00:26 9.3 °C 3.3 °C 1016.1 hPa SSE 17.7 km/h 17.7 km/h 66 % 0 mm 0.0 W/m2 BKN
00:31 9.3 °C 3.3 °C 1016.1 hPa SSE 20.4 km/h 20.4 km/h 66 % 0 mm 0.0 W/m2 OVC
00:36 9.4 °C 3.3 °C 1016.1 hPa SSE 24.1 km/h 24.1 km/h 66 % 0 mm 0.0 W/m2 OVC
00:41 9.4 °C 3.4 °C 1015.8 hPa SSE 18.5 km/h 18.5 km/h 66 % 0 mm 0.0 W/m2 OVC
00:46 9.4 °C 3.3 °C 1015.8 hPa SSE 17.7 km/h 17.7 km/h 66 % 0 mm 0.0 W/m2 OVC
00:51 9.4 °C 3.3 °C 1016.1 hPa SSE 14.5 km/h 14.5 km/h 66 % 0 mm 0.0 W/m2 OVC
00:56 9.4 °C 3.3 °C 1016.1 hPa SSE 18.5 km/h 18.5 km/h 66 % 0 mm 0.0 W/m2 OVC
01:01 9.4 °C 3.4 °C 1016.1 hPa SSE 14.8 km/h 14.8 km/h 66 % 0 mm 0.0 W/m2 OVC
01:06 9.5 °C 3.4 °C 1016.1 hPa SSE 18.5 km/h 18.5 km/h 66 % 0 mm 0.0 W/m2 OVC
01:11 9.6 °C 3.5 °C 1016.5 hPa SSE 14.8 km/h 14.8 km/h 66 % 0 mm 0.0 W/m2 OVC
01:16 9.5 °C 3.4 °C 1016.1 hPa SSE 13 km/h 13 km/h 66 % 0 mm 0.0 W/m2 OVC
01:21 9.4 °C 3.6 °C 1016.5 hPa South 13 km/h 13 km/h 67 % 0 mm 0.0 W/m2 OVC
01:26 9.3 °C 3.5 °C 1016.5 hPa SSE 11.1 km/h 11.1 km/h 67 % 0 mm 0.0 W/m2 OVC
01:31 9.3 °C 3.7 °C 1016.5 hPa South 9.3 km/h 9.3 km/h 68 % 0 mm 0.0 W/m2 OVC
01:36 9.3 °C 3.7 °C 1016.5 hPa South 9.7 km/h 9.7 km/h 68 % 0 mm 0.0 W/m2 OVC
01:41 9.3 °C 3.7 °C 1016.1 hPa South 7.4 km/h 7.4 km/h 68 % 0 mm 0.0 W/m2 OVC
01:46 9.3 °C 3.9 °C 1016.1 hPa South 9.7 km/h 9.7 km/h 69 % 0 mm 0.0 W/m2 OVC
01:51 9.3 °C 3.9 °C 1016.1 hPa South 7.4 km/h 7.4 km/h 69 % 0 mm 0.0 W/m2 OVC
01:56 9.3 °C 3.9 °C 1016.1 hPa South 7.4 km/h 7.4 km/h 69 % 0 mm 0.0 W/m2 OVC
02:01 9.4 °C 4.1 °C 1016.1 hPa South 11.1 km/h 11.1 km/h 69 % 0 mm 0.0 W/m2 OVC
02:06 9.6 °C 4.2 °C 1016.1 hPa SSE 13 km/h 13 km/h 69 % 0 mm 0.0 W/m2 OVC
02:11 9.6 °C 4.2 °C 1015.8 hPa SSE 16.7 km/h 16.7 km/h 69 % 0 mm 0.0 W/m2 OVC
02:16 9.7 °C 4.3 °C 1015.8 hPa SSE 18.5 km/h 18.5 km/h 69 % 0 mm 0.0 W/m2 OVC
02:21 9.7 °C 4.3 °C 1015.8 hPa SSE 18.5 km/h 18.5 km/h 69 % 0 mm 0.0 W/m2 OVC
02:26 9.7 °C 4.3 °C 1015.5 hPa SSE 18.5 km/h 18.5 km/h 69 % 0 mm 0.0 W/m2 OVC
02:31 9.8 °C 4.3 °C 1015.5 hPa SSE 14.8 km/h 14.8 km/h 69 % 0 mm 0.0 W/m2 OVC
02:36 9.8 °C 4.2 °C 1015.5 hPa SSE 14.8 km/h 14.8 km/h 68 % 0 mm 0.0 W/m2 OVC
02:42 9.9 °C 4.3 °C 1015.5 hPa SSE 18.5 km/h 18.5 km/h 68 % 0 mm 0.0 W/m2 OVC
02:47 10.1 °C 4.4 °C 1015.5 hPa South 16.7 km/h 16.7 km/h 68 % 0 mm 0.0 W/m2 OVC
02:52 10.1 °C 4.4 °C 1015.5 hPa South 19.3 km/h 19.3 km/h 68 % 0 mm 0.0 W/m2 OVC
02:57 10.1 °C 4.6 °C 1015.1 hPa South 13 km/h 13 km/h 69 % 0 mm 0.0 W/m2 OVC
03:02 9.9 °C 4.5 °C 1015.1 hPa South 14.8 km/h 14.8 km/h 69 % 0 mm 0.0 W/m2 OVC
03:07 9.9 °C 4.4 °C 1015.1 hPa SSE 12.9 km/h 12.9 km/h 69 % 0 mm 0.0 W/m2 OVC
03:12 9.8 °C 4.6 °C 1015.1 hPa SSE 16.7 km/h 16.7 km/h 70 % 0 mm 0.0 W/m2 OVC
03:17 9.8 °C 4.6 °C 1015.1 hPa SSE 14.5 km/h 14.5 km/h 70 % 0 mm 0.0 W/m2 OVC
03:22 9.8 °C 4.6 °C 1014.8 hPa SSE 14.8 km/h 14.8 km/h 70 % 0 mm 0.0 W/m2 OVC
03:27 9.8 °C 4.6 °C 1014.8 hPa SSE 20.4 km/h 20.4 km/h 70 % 0 mm 0.0 W/m2 OVC
03:32 9.9 °C 4.9 °C 1014.4 hPa SSE 16.7 km/h 16.7 km/h 71 % 0 mm 0.0 W/m2 BKN
03:37 9.9 °C 4.9 °C 1014.4 hPa SSE 18.5 km/h 18.5 km/h 71 % 0 mm 0.0 W/m2 BKN
03:42 10 °C 5 °C 1014.4 hPa SSE 18.5 km/h 18.5 km/h 71 % 0 mm 0.0 W/m2 BKN
03:47 10.2 °C 5 °C 1014.1 hPa SSE 18.5 km/h 18.5 km/h 70 % 0 mm 0.0 W/m2 OVC
03:52 10.5 °C 5.1 °C 1014.4 hPa South 18.5 km/h 18.5 km/h 69 % 0 mm 0.0 W/m2 OVC
03:57 10.8 °C 5.1 °C 1014.4 hPa South 18.5 km/h 18.5 km/h 68 % 0 mm 0.0 W/m2 OVC
04:02 11 °C 5.3 °C 1014.1 hPa South 25.9 km/h 25.9 km/h 68 % 0 mm 0.0 W/m2 OVC
04:07 11.1 °C 5.2 °C 1014.4 hPa South 18.5 km/h 18.5 km/h 67 % 0 mm 0.0 W/m2 OVC
04:12 11.2 °C 5.3 °C 1014.1 hPa SSE 18.5 km/h 18.5 km/h 67 % 0 mm 0.0 W/m2 OVC
04:17 11.2 °C 5.3 °C 1014.1 hPa South 18.5 km/h 18.5 km/h 67 % 0 mm 0.0 W/m2 OVC
04:22 11.3 °C 5.4 °C 1014.1 hPa South 18.5 km/h 18.5 km/h 67 % 0 mm 0.0 W/m2 OVC
04:27 11.3 °C 5.4 °C 1014.1 hPa SSE 16.7 km/h 16.7 km/h 67 % 0 mm 0.0 W/m2 OVC
04:37 11.3 °C 5.4 °C 1014.1 hPa SSE 9.3 km/h 9.3 km/h 67 % 0 mm 0.0 W/m2 OVC
04:42 11.2 °C 5.6 °C 1014.1 hPa South 9.3 km/h 9.3 km/h 68 % 0 mm 0.0 W/m2 OVC
04:47 11.2 °C 5.5 °C 1014.1 hPa SSE 9.7 km/h 9.7 km/h 68 % 0 mm 0.0 W/m2 OVC
04:52 11.2 °C 5.6 °C 1013.8 hPa SSE 11.1 km/h 11.1 km/h 68 % 0 mm 0.0 W/m2 OVC
04:57 11.4 °C 5.7 °C 1013.8 hPa SSE 13 km/h 13 km/h 68 % 0 mm 0.0 W/m2 OVC
05:02 11.4 °C 5.5 °C 1013.8 hPa SSE 18.5 km/h 18.5 km/h 67 % 0 mm 0.0 W/m2 OVC
05:07 11.6 °C 5.4 °C 1013.8 hPa SSE 16.7 km/h 16.7 km/h 66 % 0 mm 0.0 W/m2 OVC
05:12 11.8 °C 5.6 °C 1013.4 hPa South 18.5 km/h 18.5 km/h 66 % 0 mm 0.0 W/m2 OVC
05:17 11.8 °C 5.6 °C 1013.4 hPa SSE 29 km/h 29 km/h 66 % 0 mm 0.0 W/m2 OVC
05:22 11.9 °C 5.5 °C 1013.4 hPa South 25.9 km/h 25.9 km/h 65 % 0 mm 0.0 W/m2 OVC
05:27 11.9 °C 5.7 °C 1013.4 hPa SSE 19.3 km/h 19.3 km/h 66 % 0 mm 0.0 W/m2 OVC
05:32 11.8 °C 5.4 °C 1013.4 hPa South 18.5 km/h 18.5 km/h 65 % 0 mm 0.0 W/m2 OVC
05:37 11.8 °C 5.4 °C 1013.1 hPa South 18.5 km/h 18.5 km/h 65 % 0 mm 0.0 W/m2 OVC
05:42 11.8 °C 5.6 °C 1013.1 hPa SSE 24.1 km/h 24.1 km/h 66 % 0 mm 0.0 W/m2 OVC
05:47 11.8 °C 5.6 °C 1013.1 hPa SSE 20.4 km/h 20.4 km/h 66 % 0 mm 0.0 W/m2 OVC
05:52 11.8 °C 5.4 °C 1013.1 hPa SSE 22.2 km/h 22.2 km/h 65 % 0 mm 0.0 W/m2 OVC
05:57 11.8 °C 5.7 °C 1012.8 hPa SSE 20.4 km/h 20.4 km/h 66 % 0 mm 0.0 W/m2 OVC
06:02 11.7 °C 5.6 °C 1013.1 hPa SSE 19.3 km/h 19.3 km/h 66 % 0 mm 0.0 W/m2 BKN
06:07 11.6 °C 5.4 °C 1012.8 hPa South 29.6 km/h 29.6 km/h 66 % 0 mm 0.0 W/m2 BKN
06:12 11.4 °C 5.5 °C 1012.4 hPa SSE 22.2 km/h 22.2 km/h 67 % 0 mm 0.0 W/m2 BKN
06:17 11.3 °C 5.4 °C 1012.4 hPa SSE 20.4 km/h 20.4 km/h 67 % 0 mm 0.0 W/m2 BKN
06:22 11.1 °C 5.4 °C 1012.4 hPa South 18.5 km/h 18.5 km/h 68 % 0 mm 0.0 W/m2 BKN
06:27 11.1 °C 5.4 °C 1012.4 hPa SE 16.1 km/h 16.1 km/h 68 % 0 mm 0.0 W/m2 BKN
06:32 11.3 °C 5.6 °C 1012.4 hPa South 24.1 km/h 24.1 km/h 68 % 0 mm 0.0 W/m2 BKN
06:37 11.3 °C 5.6 °C 1012.4 hPa South 18.5 km/h 18.5 km/h 68 % 0 mm 0.0 W/m2 BKN
06:47 11.4 °C 5.7 °C 1012.1 hPa South 25.9 km/h 25.9 km/h 68 % 0 mm 0.0 W/m2 BKN
06:52 11.3 °C 5.6 °C 1012.1 hPa SSE 20.4 km/h 20.4 km/h 68 % 0 mm 0.0 W/m2 BKN
06:57 11 °C 5.5 °C 1012.1 hPa SSE 18.5 km/h 18.5 km/h 69 % 0 mm 0.0 W/m2 BKN
07:02 10.8 °C 5.4 °C 1011.7 hPa SSE 18.5 km/h 18.5 km/h 69 % 0 mm 0.0 W/m2 SCT
07:07 10.8 °C 5.5 °C 1011.7 hPa SSE 20.4 km/h 20.4 km/h 70 % 0 mm 0.0 W/m2 SCT
07:12 10.7 °C 5.4 °C 1011.7 hPa South 18.5 km/h 18.5 km/h 70 % 0 mm 5.0 W/m2 SCT
07:17 10.7 °C 5.4 °C 1011.7 hPa SSE 16.7 km/h 16.7 km/h 70 % 0 mm 7.0 W/m2 SCT
07:22 10.7 °C 5.4 °C 1011.7 hPa SSE 13 km/h 13 km/h 70 % 0 mm 11.0 W/m2 SCT
07:27 10.7 °C 5.7 °C 1011.7 hPa SSE 14.8 km/h 14.8 km/h 71 % 0 mm 12.0 W/m2 SCT
07:32 10.7 °C 5.7 °C 1011.7 hPa SSE 18.5 km/h 18.5 km/h 71 % 0 mm 18.0 W/m2 CLR
07:38 10.8 °C 5.6 °C 1011.7 hPa SSE 14.8 km/h 14.8 km/h 70 % 0 mm 30.0 W/m2 CLR
07:43 11.1 °C 5.8 °C 1011.4 hPa SSE 18.5 km/h 18.5 km/h 70 % 0 mm 40.0 W/m2 CLR
07:48 11.2 °C 5.9 °C 1011.4 hPa SSE 20.4 km/h 20.4 km/h 70 % 0 mm 46.0 W/m2 SCT
07:53 11.3 °C 6 °C 1011.4 hPa SSE 22.2 km/h 22.2 km/h 70 % 0 mm 54.0 W/m2 SCT
07:58 11.3 °C 6.1 °C 1011.4 hPa South 22.2 km/h 22.2 km/h 70 % 0 mm 51.0 W/m2 SCT
08:03 11.4 °C 5.9 °C 1011.4 hPa SSE 20.4 km/h 20.4 km/h 69 % 0 mm 46.0 W/m2 SCT
08:08 11.6 °C 6.1 °C 1011.4 hPa South 20.4 km/h 20.4 km/h 69 % 0 mm 30.0 W/m2 SCT
08:13 11.7 °C 6.2 °C 1011.4 hPa South 22.2 km/h 22.2 km/h 69 % 0 mm 26.0 W/m2 SCT
08:18 11.7 °C 6.2 °C 1011.1 hPa South 24.1 km/h 24.1 km/h 69 % 0 mm 39.0 W/m2 SCT
08:23 11.8 °C 6.3 °C 1011.1 hPa SSE 18.5 km/h 18.5 km/h 69 % 0 mm 49.0 W/m2 SCT
08:28 12.1 °C 6.3 °C 1011.1 hPa South 31.5 km/h 31.5 km/h 68 % 0 mm 49.0 W/m2 SCT
08:33 12.2 °C 6.5 °C 1010.7 hPa SSE 25.9 km/h 25.9 km/h 68 % 0 mm 51.0 W/m2 OVC
08:38 12.4 °C 6.7 °C 1010.7 hPa South 31.5 km/h 31.5 km/h 68 % 0 mm 51.0 W/m2 OVC
08:43 12.6 °C 6.8 °C 1010.4 hPa South 22.2 km/h 22.2 km/h 68 % 0 mm 62.0 W/m2 OVC
08:48 12.7 °C 6.7 °C 1010.4 hPa South 29.6 km/h 29.6 km/h 67 % 0 mm 63.0 W/m2 OVC
08:53 12.9 °C 6.9 °C 1010.4 hPa SSE 29.6 km/h 29.6 km/h 67 % 0 mm 76.0 W/m2 OVC
08:58 13.1 °C 7.1 °C 1010.4 hPa South 27.8 km/h 27.8 km/h 67 % 0 mm 62.0 W/m2 OVC
09:03 13.2 °C 7 °C 1010.4 hPa SSE 33.3 km/h 33.3 km/h 66 % 0 mm 74.0 W/m2 OVC
09:08 13.3 °C 7.1 °C 1010.4 hPa South 31.5 km/h 31.5 km/h 66 % 0 mm 54.0 W/m2 OVC
09:13 13.5 °C 7.1 °C 1010 hPa SSE 38.9 km/h 38.9 km/h 65 % 0 mm 70.0 W/m2 OVC
09:18 13.6 °C 7.2 °C 1010 hPa South 25.7 km/h 25.7 km/h 65 % 0 mm 107.0 W/m2 OVC
09:23 13.8 °C 7.1 °C 1010 hPa SSE 35.2 km/h 35.2 km/h 64 % 0 mm 121.0 W/m2 OVC
09:28 13.9 °C 7.2 °C 1010 hPa SSE 35.4 km/h 35.4 km/h 64 % 0 mm 116.0 W/m2 OVC
09:33 14.1 °C 7.4 °C 1010 hPa South 31.5 km/h 31.5 km/h 64 % 0 mm 125.0 W/m2 OVC
09:38 14.3 °C 7.6 °C 1009.7 hPa SSE 33.3 km/h 33.3 km/h 64 % 0 mm 102.0 W/m2 OVC
09:43 14.3 °C 7.6 °C 1009.7 hPa South 35.4 km/h 35.4 km/h 64 % 0 mm 111.0 W/m2 OVC
09:48 14.3 °C 7.6 °C 1009.7 hPa SSE 24.1 km/h 24.1 km/h 64 % 0 mm 116.0 W/m2 OVC
09:53 14.4 °C 7.7 °C 1009.7 hPa South 35.2 km/h 35.2 km/h 64 % 0 mm 127.0 W/m2 OVC
09:58 14.6 °C 7.8 °C 1009.7 hPa South 40.7 km/h 40.7 km/h 64 % 0 mm 125.0 W/m2 OVC
10:03 14.6 °C 7.9 °C 1009.4 hPa SSE 33.3 km/h 33.3 km/h 64 % 0 mm 102.0 W/m2 OVC
10:13 14.7 °C 7.9 °C 1009.4 hPa SSE 27.8 km/h 27.8 km/h 64 % 0 mm 127.0 W/m2 OVC
10:18 14.7 °C 8 °C 1009 hPa SSW 40.2 km/h 40.2 km/h 64 % 0 mm 142.0 W/m2 OVC
10:23 14.8 °C 8.1 °C 1009 hPa South 35.2 km/h 35.2 km/h 64 % 0 mm 172.0 W/m2 OVC
10:28 14.9 °C 8.1 °C 1008.7 hPa SSE 25.9 km/h 25.9 km/h 64 % 0 mm 216.0 W/m2 OVC
10:33 14.9 °C 8.2 °C 1008.7 hPa South 33.3 km/h 33.3 km/h 64 % 0 mm 174.0 W/m2 OVC
10:38 14.9 °C 8.2 °C 1008.4 hPa South 31.5 km/h 31.5 km/h 64 % 0 mm 120.0 W/m2 OVC
10:43 14.9 °C 8.1 °C 1008.4 hPa South 33.3 km/h 33.3 km/h 64 % 0 mm 163.0 W/m2 OVC
10:53 15 °C 8.2 °C 1008.4 hPa South 29.6 km/h 29.6 km/h 64 % 0 mm 137.0 W/m2 OVC
10:58 15.1 °C 8.3 °C 1008 hPa South 33.3 km/h 33.3 km/h 64 % 0 mm 113.0 W/m2 OVC
11:03 15.1 °C 8.3 °C 1008 hPa SW 31.5 km/h 31.5 km/h 64 % 0 mm 156.0 W/m2 OVC
11:08 15.3 °C 8.5 °C 1007.7 hPa South 38.9 km/h 38.9 km/h 64 % 0 mm 188.0 W/m2 OVC
11:13 15.6 °C 8.8 °C 1007.7 hPa South 25.9 km/h 25.9 km/h 64 % 0 mm 272.0 W/m2 OVC
11:18 15.8 °C 8.8 °C 1007.3 hPa SSE 38.9 km/h 38.9 km/h 63 % 0 mm 271.0 W/m2 OVC
11:23 16.1 °C 8.8 °C 1007.3 hPa South 37 km/h 37 km/h 62 % 0 mm 230.0 W/m2 OVC
11:28 16.2 °C 8.9 °C 1007.3 hPa South 29.6 km/h 29.6 km/h 62 % 0 mm 225.0 W/m2 OVC
11:33 16.3 °C 9 °C 1007 hPa SW 24.1 km/h 24.1 km/h 62 % 0 mm 216.0 W/m2 BKN
11:38 16.4 °C 9.1 °C 1007 hPa South 31.5 km/h 31.5 km/h 62 % 0 mm 255.0 W/m2 BKN
11:43 16.6 °C 9.2 °C 1007 hPa SSW 27.8 km/h 27.8 km/h 62 % 0 mm 234.0 W/m2 BKN
11:48 16.7 °C 9.2 °C 1007 hPa South 29.6 km/h 29.6 km/h 61 % 0 mm 186.0 W/m2 SCT
11:53 16.7 °C 9.2 °C 1006.7 hPa South 31.5 km/h 31.5 km/h 61 % 0 mm 162.0 W/m2 SCT
11:58 16.7 °C 9.4 °C 1006.7 hPa South 31.5 km/h 31.5 km/h 62 % 0 mm 181.0 W/m2 SCT
12:03 16.8 °C 9.4 °C 1006.3 hPa South 33.3 km/h 33.3 km/h 62 % 0 mm 185.0 W/m2 CLR
12:08 16.9 °C 9.6 °C 1006.3 hPa South 31.5 km/h 31.5 km/h 62 % 0 mm 197.0 W/m2 CLR
12:13 16.9 °C 9.6 °C 1006.3 hPa SW 29.6 km/h 29.6 km/h 62 % 0 mm 225.0 W/m2 CLR
12:18 17.1 °C 9.8 °C 1006.3 hPa South 37 km/h 37 km/h 62 % 0 mm 306.0 W/m2 CLR
12:23 17.2 °C 9.9 °C 1006.3 hPa South 31.5 km/h 31.5 km/h 62 % 0 mm 220.0 W/m2 CLR
12:28 17.2 °C 9.9 °C 1006 hPa South 29.6 km/h 29.6 km/h 62 % 0 mm 207.0 W/m2 CLR
12:33 17.2 °C 9.8 °C 1006 hPa South 31.5 km/h 31.5 km/h 62 % 0 mm 211.0 W/m2 CLR
12:38 17.2 °C 9.8 °C 1005.6 hPa SW 33.3 km/h 33.3 km/h 62 % 0 mm 206.0 W/m2 CLR
12:43 17.3 °C 9.9 °C 1005.6 hPa SSW 31.5 km/h 31.5 km/h 62 % 0 mm 202.0 W/m2 CLR
12:48 17.3 °C 10 °C 1005.6 hPa SSE 38.9 km/h 38.9 km/h 62 % 0 mm 179.0 W/m2 CLR
12:53 17.3 °C 9.9 °C 1005.6 hPa South 31.5 km/h 31.5 km/h 62 % 0 mm 169.0 W/m2 CLR
12:58 17.3 °C 10 °C 1005.6 hPa South 40.7 km/h 40.7 km/h 62 % 0 mm 192.0 W/m2 CLR
13:03 17.4 °C 9.8 °C 1005.3 hPa SW 38.9 km/h 38.9 km/h 61 % 0 mm 197.0 W/m2 CLR
13:08 17.5 °C 10.1 °C 1005.3 hPa South 27.8 km/h 27.8 km/h 62 % 0 mm 186.0 W/m2 CLR
13:13 17.6 °C 9.9 °C 1005.3 hPa South 31.5 km/h 31.5 km/h 61 % 0 mm 158.0 W/m2 CLR
13:18 17.6 °C 9.9 °C 1005 hPa South 31.5 km/h 31.5 km/h 61 % 0 mm 160.0 W/m2 CLR
13:23 17.5 °C 9.9 °C 1005 hPa SSW 27.8 km/h 27.8 km/h 61 % 0 mm 155.0 W/m2 CLR
13:28 17.5 °C 9.9 °C 1004.6 hPa South 40.7 km/h 40.7 km/h 61 % 0 mm 148.0 W/m2 CLR
13:33 17.4 °C 9.8 °C 1004.6 hPa South 46.3 km/h 46.3 km/h 61 % 0 mm 137.0 W/m2 SCT
13:38 17.4 °C 10.1 °C 1004.6 hPa SSW 27.8 km/h 27.8 km/h 62 % 0 mm 121.0 W/m2 SCT
13:43 17.4 °C 9.8 °C 1005 hPa SSW 31.5 km/h 31.5 km/h 61 % 0 mm 114.0 W/m2 SCT
13:48 17.3 °C 9.7 °C 1004.6 hPa South 29.6 km/h 29.6 km/h 61 % 0 mm 128.0 W/m2 SCT
13:50 17.3 °C 9.7 °C 1004.6 hPa SSE 31.5 km/h 31.5 km/h 61 % 0 mm 135.0 W/m2 SCT
13:55 17.3 °C 9.7 °C 1004.6 hPa South 31.5 km/h 31.5 km/h 61 % 0 mm 141.0 W/m2 SCT
14:00 17.3 °C 9.7 °C 1005 hPa South 27.8 km/h 27.8 km/h 61 % 0 mm 132.0 W/m2 SCT
14:05 17.3 °C 9.7 °C 1005 hPa South 31.5 km/h 31.5 km/h 61 % 0 mm 125.0 W/m2 SCT
14:10 17.3 °C 9.7 °C 1005 hPa South 35.2 km/h 35.2 km/h 61 % 0 mm 109.0 W/m2 SCT
14:15 17.2 °C 9.6 °C 1005 hPa South 29.6 km/h 29.6 km/h 61 % 0 mm 91.0 W/m2 SCT
14:20 17.3 °C 9.7 °C 1004.6 hPa SSW 31.5 km/h 31.5 km/h 61 % 0 mm 93.0 W/m2 SCT
14:25 17.3 °C 9.7 °C 1005 hPa South 35.2 km/h 35.2 km/h 61 % 0 mm 81.0 W/m2 SCT
14:30 17.4 °C 9.6 °C 1004.6 hPa SSE 33.3 km/h 33.3 km/h 60 % 0 mm 79.0 W/m2 SCT
14:35 17.3 °C 9.5 °C 1004.6 hPa South 38.9 km/h 38.9 km/h 60 % 0 mm 69.0 W/m2 CLR
14:40 17.3 °C 9.2 °C 1004.6 hPa South 29.6 km/h 29.6 km/h 59 % 0 mm 46.0 W/m2 CLR
14:45 17.3 °C 9.2 °C 1004.6 hPa South 35.2 km/h 35.2 km/h 59 % 0 mm 44.0 W/m2 CLR
14:50 17.3 °C 9.2 °C 1004.6 hPa South 25.9 km/h 25.9 km/h 59 % 0 mm 46.0 W/m2 SCT
14:55 17.3 °C 9.2 °C 1005 hPa SSW 20.4 km/h 20.4 km/h 59 % 0 mm 56.0 W/m2 SCT
15:00 17.2 °C 9.4 °C 1005 hPa South 25.9 km/h 25.9 km/h 60 % 0 mm 56.0 W/m2 SCT
15:05 17.2 °C 9.4 °C 1005 hPa South 27.8 km/h 27.8 km/h 60 % 0 mm 47.0 W/m2 SCT
15:10 17.3 °C 9.4 °C 1005 hPa SW 31.5 km/h 31.5 km/h 60 % 0 mm 40.0 W/m2 SCT
15:15 17.2 °C 9.1 °C 1005 hPa SSW 35.2 km/h 35.2 km/h 59 % 0 mm 42.0 W/m2 SCT
15:20 17.3 °C 9.2 °C 1005 hPa SSW 27.8 km/h 27.8 km/h 59 % 0 mm 26.0 W/m2 OVC
15:25 17.3 °C 9.2 °C 1005 hPa SSW 29.6 km/h 29.6 km/h 59 % 0 mm 19.0 W/m2 OVC
15:30 17.2 °C 9.1 °C 1005 hPa South 22.2 km/h 22.2 km/h 59 % 0 mm 18.0 W/m2 OVC
15:35 17.1 °C 9.3 °C 1005 hPa South 31.5 km/h 31.5 km/h 60 % 0 mm 19.0 W/m2 OVC
15:40 17.2 °C 9.1 °C 1005 hPa South 35.2 km/h 35.2 km/h 59 % 0 mm 21.0 W/m2 OVC
15:45 17.2 °C 9.3 °C 1004.6 hPa SSW 35.2 km/h 35.2 km/h 60 % 0 mm 26.0 W/m2 OVC
15:50 17 °C 9.2 °C 1004.3 hPa South 22.2 km/h 22.2 km/h 60 % 0 mm 28.0 W/m2 OVC
15:55 16.8 °C 9.2 °C 1004.6 hPa South 31.5 km/h 31.5 km/h 61 % 0 mm 21.0 W/m2 OVC
16:00 16.5 °C 8.9 °C 1004.3 hPa SSE 31.5 km/h 31.5 km/h 61 % 0 mm 14.0 W/m2 OVC
16:05 16.4 °C 9.1 °C 1004.3 hPa South 31.5 km/h 31.5 km/h 62 % 0 mm 7.0 W/m2 BKN
16:10 16.5 °C 9.2 °C 1004.3 hPa South 33.3 km/h 33.3 km/h 62 % 0 mm 0.0 W/m2 BKN
16:15 16.4 °C 9.1 °C 1003.9 hPa SSE 27.8 km/h 27.8 km/h 62 % 0 mm 0.0 W/m2 BKN
16:20 16.3 °C 8.8 °C 1003.9 hPa South 31.5 km/h 31.5 km/h 61 % 0 mm 0.0 W/m2 BKN
16:25 16.2 °C 8.9 °C 1003.9 hPa South 35.4 km/h 35.4 km/h 62 % 0 mm 0.0 W/m2 BKN
16:30 16.1 °C 8.8 °C 1003.6 hPa South 40.7 km/h 40.7 km/h 62 % 0 mm 0.0 W/m2 BKN
16:35 16.1 °C 8.8 °C 1003.6 hPa South 31.5 km/h 31.5 km/h 62 % 0 mm 0.0 W/m2 BKN
16:40 15.9 °C 8.9 °C 1003.6 hPa SSE 35.2 km/h 35.2 km/h 63 % 0 mm 0.0 W/m2 BKN
16:45 16 °C 8.9 °C 1003.3 hPa SSE 40.7 km/h 40.7 km/h 63 % 0 mm 0.0 W/m2 BKN
16:50 16 °C 8.9 °C 1002.9 hPa SSW 37 km/h 37 km/h 63 % 0 mm 0.0 W/m2 SCT
16:55 16 °C 8.9 °C 1002.9 hPa SW 35.2 km/h 35.2 km/h 63 % 0 mm 0.0 W/m2 SCT
17:00 16.1 °C 9.2 °C 1002.9 hPa South 37 km/h 37 km/h 64 % 0 mm 0.0 W/m2 SCT
17:05 16.2 °C 9.3 °C 1002.9 hPa SSW 37 km/h 37 km/h 64 % 0 mm 0.0 W/m2 SCT
17:10 16.1 °C 9.3 °C 1002.9 hPa SSE 37 km/h 37 km/h 64 % 0 mm 0.0 W/m2 SCT
17:15 16 °C 9.2 °C 1002.9 hPa South 38.9 km/h 38.9 km/h 64 % 0 mm 0.0 W/m2 SCT
17:20 16.1 °C 9.2 °C 1002.9 hPa South 42.6 km/h 42.6 km/h 64 % 0 mm 0.0 W/m2 CLR
17:25 16.1 °C 9.2 °C 1002.9 hPa South 38.6 km/h 38.6 km/h 64 % 0 mm 0.0 W/m2 CLR
17:30 16.1 °C 9.5 °C 1002.9 hPa SSW 31.5 km/h 31.5 km/h 65 % 0 mm 0.0 W/m2 CLR
17:35 16.2 °C 9.6 °C 1002.9 hPa SSW 37 km/h 37 km/h 65 % 0 mm 0.0 W/m2 CLR
17:40 16.2 °C 9.8 °C 1002.9 hPa South 42.6 km/h 42.6 km/h 66 % 0 mm 0.0 W/m2 CLR
17:45 16.2 °C 9.8 °C 1002.9 hPa South 42.6 km/h 42.6 km/h 66 % 0 mm 0.0 W/m2 CLR
17:50 16.3 °C 10.1 °C 1002.9 hPa South 42.6 km/h 42.6 km/h 67 % 0 mm 0.0 W/m2 SCT
17:55 16.2 °C 10.1 °C 1002.6 hPa SSE 37 km/h 37 km/h 67 % 0 mm 0.0 W/m2 SCT
17:56 16.2 °C 10.1 °C 1002.6 hPa South 37 km/h 37 km/h 67 % 0 mm 0.0 W/m2 SCT
18:01 16.2 °C 10.3 °C 1002.6 hPa South 35.2 km/h 35.2 km/h 68 % 0 mm 0.0 W/m2 OVC
18:06 16.3 °C 10.3 °C 1002.6 hPa South 37 km/h 37 km/h 68 % 0 mm 0.0 W/m2 OVC
18:11 16.2 °C 10.3 °C 1002.6 hPa SSW 33.3 km/h 33.3 km/h 68 % 0 mm 0.0 W/m2 OVC
18:16 16.2 °C 10.1 °C 1002.6 hPa SSE 40.7 km/h 40.7 km/h 67 % 0 mm 0.0 W/m2 OVC
18:21 16.2 °C 10.1 °C 1002.6 hPa South 29.6 km/h 29.6 km/h 67 % 0 mm 0.0 W/m2 OVC
18:26 16.1 °C 10 °C 1001.9 hPa South 38.9 km/h 38.9 km/h 67 % 0 mm 0.0 W/m2 OVC
18:31 16.1 °C 9.9 °C 1001.9 hPa SSW 33.3 km/h 33.3 km/h 67 % 0 mm 0.0 W/m2 OVC
18:36 16 °C 9.9 °C 1001.9 hPa SSW 35.2 km/h 35.2 km/h 67 % 0 mm 0.0 W/m2 OVC
18:41 16 °C 9.9 °C 1001.9 hPa South 31.5 km/h 31.5 km/h 67 % 0 mm 0.0 W/m2 OVC
18:46 16.1 °C 9.9 °C 1002.3 hPa SSE 32.2 km/h 32.2 km/h 67 % 0 mm 0.0 W/m2 OVC
18:51 16 °C 10.1 °C 1001.9 hPa SW 35.2 km/h 35.2 km/h 68 % 0 mm 0.0 W/m2 OVC
18:56 16.1 °C 10.2 °C 1002.3 hPa South 31.5 km/h 31.5 km/h 68 % 0 mm 0.0 W/m2 OVC
19:01 16.1 °C 10.2 °C 1002.3 hPa South 31.5 km/h 31.5 km/h 68 % 0 mm 0.0 W/m2 SCT
19:06 16 °C 10.1 °C 1002.3 hPa SSW 29.6 km/h 29.6 km/h 68 % 0 mm 0.0 W/m2 SCT
19:11 15.9 °C 10.3 °C 1001.9 hPa South 40.7 km/h 40.7 km/h 69 % 0 mm 0.0 W/m2 SCT
19:16 15.9 °C 10.3 °C 1001.9 hPa South 35.2 km/h 35.2 km/h 69 % 0 mm 0.0 W/m2 SCT
19:21 15.9 °C 10.2 °C 1001.9 hPa SSW 44.4 km/h 44.4 km/h 69 % 0 mm 0.0 W/m2 SCT
19:26 15.9 °C 10.5 °C 1001.9 hPa South 31.5 km/h 31.5 km/h 70 % 0 mm 0.0 W/m2 SCT
19:31 15.9 °C 10.5 °C 1001.9 hPa South 31.5 km/h 31.5 km/h 70 % 0 mm 0.0 W/m2 BKN
19:36 15.9 °C 10.5 °C 1001.9 hPa South 44.4 km/h 44.4 km/h 70 % 0 mm 0.0 W/m2 BKN
19:41 16 °C 10.6 °C 1001.9 hPa SSW 35.2 km/h 35.2 km/h 70 % 0 mm 0.0 W/m2 BKN
19:46 16.1 °C 11 °C 1001.6 hPa SSW 42.6 km/h 42.6 km/h 72 % 0 mm 0.0 W/m2 BKN
19:51 16 °C 10.9 °C 1001.9 hPa South 35.4 km/h 35.4 km/h 72 % 0 mm 0.0 W/m2 BKN
19:56 16.1 °C 11 °C 1001.9 hPa SSE 25.9 km/h 25.9 km/h 72 % 0 mm 0.0 W/m2 BKN
20:01 16.1 °C 11.2 °C 1001.9 hPa South 42.6 km/h 42.6 km/h 73 % 0 mm 0.0 W/m2 SCT
20:06 16.2 °C 11.3 °C 1001.9 hPa South 35.2 km/h 35.2 km/h 73 % 0 mm 0.0 W/m2 SCT
20:11 16.2 °C 11.6 °C 1001.9 hPa South 37 km/h 37 km/h 74 % 0 mm 0.0 W/m2 SCT
20:16 16.3 °C 11.7 °C 1001.9 hPa South 40.7 km/h 40.7 km/h 74 % 0 mm 0.0 W/m2 SCT
20:21 16.3 °C 11.5 °C 1001.6 hPa South 48.1 km/h 48.1 km/h 73 % 0 mm 0.0 W/m2 SCT
20:22 16.3 °C 11.7 °C 1001.6 hPa SSW 37 km/h 37 km/h 74 % 0 mm 0.0 W/m2 SCT
20:27 16.3 °C 11.5 °C 1001.6 hPa SW 33.3 km/h 33.3 km/h 73 % 0 mm 0.0 W/m2 SCT
20:32 16.3 °C 11.5 °C 1001.6 hPa SSE 25.9 km/h 25.9 km/h 73 % 0 mm 0.0 W/m2 OVC
20:37 16.3 °C 11.7 °C 1001.6 hPa SSW 31.5 km/h 31.5 km/h 74 % 0 mm 0.0 W/m2 OVC
20:42 16.4 °C 11.7 °C 1001.6 hPa SSW 33.3 km/h 33.3 km/h 74 % 0 mm 0.0 W/m2 OVC
20:47 16.3 °C 11.7 °C 1001.6 hPa SSW 37 km/h 37 km/h 74 % 0 mm 0.0 W/m2 OVC
20:52 16.3 °C 11.9 °C 1001.6 hPa South 40.7 km/h 40.7 km/h 75 % 0 mm 0.0 W/m2 OVC
20:57 16.3 °C 12.2 °C 1001.6 hPa South 37 km/h 37 km/h 77 % 0 mm 0.0 W/m2 OVC
21:02 16.2 °C 12.3 °C 1001.6 hPa South 38.9 km/h 38.9 km/h 78 % 0 mm 0.0 W/m2 OVC
21:07 16.1 °C 12.4 °C 1001.6 hPa South 42.6 km/h 42.6 km/h 79 % 0 mm 0.0 W/m2 OVC
21:13 15.9 °C 12.5 °C 1001.6 hPa SSW 38.9 km/h 38.9 km/h 80 % 0 mm 0.0 W/m2 OVC
21:18 15.8 °C 12.6 °C 1001.6 hPa SSW 27.8 km/h 27.8 km/h 81 % 0 mm 0.0 W/m2 OVC
21:20 15.7 °C 12.7 °C 1001.6 hPa SSW 32.2 km/h 32.2 km/h 82 % 0 mm 0.0 W/m2 OVC
21:25 15.2 °C 12.7 °C 1001.2 hPa SSW 31.5 km/h 31.5 km/h 85 % 0 mm 0.0 W/m2 OVC
21:30 15 °C 12.8 °C 1001.2 hPa SSW 33.3 km/h 33.3 km/h 87 % 0 mm 0.0 W/m2 OVC
21:35 14.9 °C 12.8 °C 1001.2 hPa SE 29.6 km/h 29.6 km/h 87 % 0 mm 0.0 W/m2 OVC
21:40 14.9 °C 12.9 °C 1000.9 hPa South 37 km/h 37 km/h 88 % 0 mm 0.0 W/m2 OVC
21:45 14.9 °C 12.8 °C 1000.9 hPa South 31.5 km/h 31.5 km/h 87 % 0 mm 0.0 W/m2 OVC
21:55 15 °C 12.8 °C 1000.9 hPa South 42.6 km/h 42.6 km/h 87 % 0 mm 0.0 W/m2 OVC
22:00 15.1 °C 12.9 °C 1000.9 hPa SSW 27.8 km/h 27.8 km/h 87 % 0 mm 0.0 W/m2 OVC
22:05 15.1 °C 12.9 °C 1000.9 hPa SSW 35.2 km/h 35.2 km/h 87 % 0 mm 0.0 W/m2 OVC
22:10 15.2 °C 12.9 °C 1000.9 hPa South 42.6 km/h 42.6 km/h 86 % 0 mm 0.0 W/m2 OVC
22:15 15.3 °C 13.1 °C 1000.9 hPa South 27.8 km/h 27.8 km/h 87 % 0 mm 0.0 W/m2 OVC
22:20 15.3 °C 13.2 °C 1000.9 hPa SSW 37 km/h 37 km/h 87 % 0 mm 0.0 W/m2 BKN
22:25 15.4 °C 13.3 °C 1000.9 hPa South 42.6 km/h 42.6 km/h 87 % 0 mm 0.0 W/m2 BKN
22:30 15.4 °C 13.3 °C 1001.2 hPa SSW 42.6 km/h 42.6 km/h 87 % 0 mm 0.0 W/m2 BKN
22:35 15.4 °C 13.2 °C 1000.9 hPa SSW 42.6 km/h 42.6 km/h 87 % 0 mm 0.0 W/m2 OVC
22:36 15.4 °C 13.2 °C 1000.9 hPa South 42.6 km/h 42.6 km/h 87 % 0 mm 0.0 W/m2 OVC
22:41 15.4 °C 13.4 °C 1001.2 hPa SW 44.4 km/h 44.4 km/h 88 % 0 mm 0.0 W/m2 OVC
22:46 15.2 °C 12.8 °C 1002.6 hPa WSW 46.3 km/h 46.3 km/h 86 % 0.25 mm 0.0 W/m2 RA
22:51 12.9 °C 9.2 °C 1002.6 hPa WSW 29.6 km/h 29.6 km/h 78 % 0.76 mm 0.0 W/m2 RA
22:56 11.7 °C 8.7 °C 1002.6 hPa WNW 33.8 km/h 33.8 km/h 82 % 0.76 mm 0.0 W/m2 RA
23:01 11.1 °C 8.4 °C 1002.9 hPa WSW 33.3 km/h 33.3 km/h 84 % 0.76 mm 0.0 W/m2 OVC
23:06 10.7 °C 8.3 °C 1003.3 hPa SW 25.9 km/h 25.9 km/h 85 % 0.76 mm 0.0 W/m2 OVC
23:11 10.5 °C 8.3 °C 1003.6 hPa West 25.9 km/h 25.9 km/h 86 % 0.76 mm 0.0 W/m2 OVC
23:16 10.3 °C 8.1 °C 1003.6 hPa WSW 42.6 km/h 42.6 km/h 86 % 0.76 mm 0.0 W/m2 OVC
23:21 10.1 °C 7.9 °C 1003.6 hPa WSW 22.2 km/h 22.2 km/h 86 % 0.76 mm 0.0 W/m2 -RA
23:26 9.9 °C 7.7 °C 1003.9 hPa WSW 33.3 km/h 33.3 km/h 86 % 0.76 mm 0.0 W/m2 -RA
23:31 9.6 °C 7.1 °C 1004.3 hPa WSW 27.8 km/h 27.8 km/h 84 % 0.76 mm 0.0 W/m2 -RA
23:36 9.2 °C 6.3 °C 1004.3 hPa SW 29.6 km/h 29.6 km/h 82 % 0.76 mm 0.0 W/m2 -RA
23:41 8.9 °C 5.1 °C 1004.3 hPa SW 53.8 km/h 53.8 km/h 77 % 0.76 mm 0.0 W/m2 OVC
23:46 8.7 °C 4.7 °C 1004.3 hPa WSW 35.2 km/h 35.2 km/h 76 % 0.51 mm 0.0 W/m2 OVC
23:51 8.5 °C 4.7 °C 1004.6 hPa West 33.3 km/h 33.3 km/h 77 % 0 mm 0.0 W/m2 OVC
23:56 8.3 °C 4.7 °C 1004.6 hPa West 18.5 km/h 18.5 km/h 78 % 0 mm 0.0 W/m2 OVC
Bourbonnais, Illinois, USA
Compliments of Weather Underground - 3.5 mb